sensor_id;sensor_type;location;lat;lon;timestamp;temperature;humidity
27707;DHT22;36332;51.384;0.040;2023-04-19T00:01:09;9.30;99.90
27707;DHT22;36332;51.384;0.040;2023-04-19T00:03:37;9.30;99.90
27707;DHT22;36332;51.384;0.040;2023-04-19T00:06:06;9.30;99.90
27707;DHT22;36332;51.384;0.040;2023-04-19T00:08:34;9.80;99.90
27707;DHT22;36332;51.384;0.040;2023-04-19T00:11:02;9.30;99.90
27707;DHT22;36332;51.384;0.040;2023-04-19T00:13:30;9.30;99.90
27707;DHT22;36332;51.384;0.040;2023-04-19T00:15:58;9.30;99.90
27707;DHT22;36332;51.384;0.040;2023-04-19T00:18:25;9.20;99.90
27707;DHT22;36332;51.384;0.040;2023-04-19T00:20:53;9.20;99.90
27707;DHT22;36332;51.384;0.040;2023-04-19T00:23:20;9.20;99.90
27707;DHT22;36332;51.384;0.040;2023-04-19T00:25:48;9.10;99.90
27707;DHT22;36332;51.384;0.040;2023-04-19T00:28:16;9.00;99.90
27707;DHT22;36332;51.384;0.040;2023-04-19T00:30:44;9.00;99.90
27707;DHT22;36332;51.384;0.040;2023-04-19T00:33:11;9.00;99.90
27707;DHT22;36332;51.384;0.040;2023-04-19T00:35:39;8.90;99.90
27707;DHT22;36332;51.384;0.040;2023-04-19T00:38:08;8.80;99.90
27707;DHT22;36332;51.384;0.040;2023-04-19T00:40:36;8.80;99.90
27707;DHT22;36332;51.384;0.040;2023-04-19T00:43:04;8.80;99.90
27707;DHT22;36332;51.384;0.040;2023-04-19T00:45:34;8.70;99.90
27707;DHT22;36332;51.384;0.040;2023-04-19T00:48:04;8.80;99.90
27707;DHT22;36332;51.384;0.040;2023-04-19T00:50:32;8.70;99.90
27707;DHT22;36332;51.384;0.040;2023-04-19T00:52:59;8.60;99.90
27707;DHT22;36332;51.384;0.040;2023-04-19T00:55:27;8.60;99.90
27707;DHT22;36332;51.384;0.040;2023-04-19T00:57:56;8.50;99.90
27707;DHT22;36332;51.384;0.040;2023-04-19T01:00:23;8.50;99.90
27707;DHT22;36332;51.384;0.040;2023-04-19T01:02:51;8.50;99.90
27707;DHT22;36332;51.384;0.040;2023-04-19T01:05:20;8.50;99.90
27707;DHT22;36332;51.384;0.040;2023-04-19T01:07:48;8.50;99.90
27707;DHT22;36332;51.384;0.040;2023-04-19T01:10:15;8.40;99.90
27707;DHT22;36332;51.384;0.040;2023-04-19T01:12:43;8.40;99.90
27707;DHT22;36332;51.384;0.040;2023-04-19T01:15:11;8.40;99.90
27707;DHT22;36332;51.384;0.040;2023-04-19T01:17:40;8.40;99.90
27707;DHT22;36332;51.384;0.040;2023-04-19T01:20:08;8.40;99.90
27707;DHT22;36332;51.384;0.040;2023-04-19T01:22:37;8.30;99.90
27707;DHT22;36332;51.384;0.040;2023-04-19T01:25:05;8.20;99.90
27707;DHT22;36332;51.384;0.040;2023-04-19T01:27:34;8.30;99.90
27707;DHT22;36332;51.384;0.040;2023-04-19T01:30:01;8.10;99.90
27707;DHT22;36332;51.384;0.040;2023-04-19T01:32:30;8.20;99.90
27707;DHT22;36332;51.384;0.040;2023-04-19T01:34:57;8.10;99.90
27707;DHT22;36332;51.384;0.040;2023-04-19T01:37:25;8.10;99.90
27707;DHT22;36332;51.384;0.040;2023-04-19T01:42:20;8.10;99.90
27707;DHT22;36332;51.384;0.040;2023-04-19T01:44:48;8.00;99.90
27707;DHT22;36332;51.384;0.040;2023-04-19T01:47:16;8.10;99.90
27707;DHT22;36332;51.384;0.040;2023-04-19T01:49:44;8.10;99.90
27707;DHT22;36332;51.384;0.040;2023-04-19T01:52:11;8.10;99.90
27707;DHT22;36332;51.384;0.040;2023-04-19T01:54:39;8.00;99.90
27707;DHT22;36332;51.384;0.040;2023-04-19T01:57:07;8.10;99.90
27707;DHT22;36332;51.384;0.040;2023-04-19T01:59:34;8.10;99.90
27707;DHT22;36332;51.384;0.040;2023-04-19T02:02:05;8.10;99.90
27707;DHT22;36332;51.384;0.040;2023-04-19T02:04:33;8.20;99.90
27707;DHT22;36332;51.384;0.040;2023-04-19T02:09:28;7.20;99.90
27707;DHT22;36332;51.384;0.040;2023-04-19T02:11:56;8.20;99.90
27707;DHT22;36332;51.384;0.040;2023-04-19T02:16:53;8.20;99.90
27707;DHT22;36332;51.384;0.040;2023-04-19T02:19:21;8.30;99.90
27707;DHT22;36332;51.384;0.040;2023-04-19T02:21:49;8.40;99.90
27707;DHT22;36332;51.384;0.040;2023-04-19T02:24:16;8.30;99.90
27707;DHT22;36332;51.384;0.040;2023-04-19T02:26:44;8.40;99.90
27707;DHT22;36332;51.384;0.040;2023-04-19T02:29:14;8.40;99.90
27707;DHT22;36332;51.384;0.040;2023-04-19T02:31:44;8.40;99.90
27707;DHT22;36332;51.384;0.040;2023-04-19T02:34:12;8.40;99.90
27707;DHT22;36332;51.384;0.040;2023-04-19T02:36:40;8.50;99.90
27707;DHT22;36332;51.384;0.040;2023-04-19T02:39:08;8.50;99.90
27707;DHT22;36332;51.384;0.040;2023-04-19T02:41:38;8.50;99.90
27707;DHT22;36332;51.384;0.040;2023-04-19T02:44:05;8.50;99.90
27707;DHT22;36332;51.384;0.040;2023-04-19T02:46:33;8.50;99.90
27707;DHT22;36332;51.384;0.040;2023-04-19T02:51:29;8.50;99.90
27707;DHT22;36332;51.384;0.040;2023-04-19T02:53:57;8.50;99.90
27707;DHT22;36332;51.384;0.040;2023-04-19T02:56:25;8.50;99.90
27707;DHT22;36332;51.384;0.040;2023-04-19T02:59:02;8.50;99.90
27707;DHT22;36332;51.384;0.040;2023-04-19T03:01:31;8.50;99.90
27707;DHT22;36332;51.384;0.040;2023-04-19T03:04:01;8.50;99.90
27707;DHT22;36332;51.384;0.040;2023-04-19T03:06:29;8.40;99.90
27707;DHT22;36332;51.384;0.040;2023-04-19T03:08:58;8.50;99.90
27707;DHT22;36332;51.384;0.040;2023-04-19T03:11:26;8.40;99.90
27707;DHT22;36332;51.384;0.040;2023-04-19T03:13:54;8.40;99.90
27707;DHT22;36332;51.384;0.040;2023-04-19T03:16:22;8.40;99.90
27707;DHT22;36332;51.384;0.040;2023-04-19T03:18:49;8.30;99.90
27707;DHT22;36332;51.384;0.040;2023-04-19T03:21:21;8.40;99.90
27707;DHT22;36332;51.384;0.040;2023-04-19T03:23:54;8.30;99.90
27707;DHT22;36332;51.384;0.040;2023-04-19T03:26:23;8.30;99.90
27707;DHT22;36332;51.384;0.040;2023-04-19T03:28:53;8.30;99.90
27707;DHT22;36332;51.384;0.040;2023-04-19T03:31:30;8.30;99.90
27707;DHT22;36332;51.384;0.040;2023-04-19T03:33:59;8.30;99.90
27707;DHT22;36332;51.384;0.040;2023-04-19T03:36:33;6.80;99.90
27707;DHT22;36332;51.384;0.040;2023-04-19T03:39:02;8.20;99.90
27707;DHT22;36332;51.384;0.040;2023-04-19T03:41:30;8.20;99.90
27707;DHT22;36332;51.384;0.040;2023-04-19T03:44:24;8.20;99.90
27707;DHT22;36332;51.384;0.040;2023-04-19T03:46:53;8.10;99.90
27707;DHT22;36332;51.384;0.040;2023-04-19T03:49:24;8.10;99.90
27707;DHT22;36332;51.384;0.040;2023-04-19T03:52:02;8.10;99.90
27707;DHT22;36332;51.384;0.040;2023-04-19T03:54:30;8.00;99.90
27707;DHT22;36332;51.384;0.040;2023-04-19T03:56:59;8.00;99.90
27707;DHT22;36332;51.384;0.040;2023-04-19T03:59:27;7.90;99.90
27707;DHT22;36332;51.384;0.040;2023-04-19T04:01:57;7.90;99.90
27707;DHT22;36332;51.384;0.040;2023-04-19T04:04:25;7.90;99.90
27707;DHT22;36332;51.384;0.040;2023-04-19T04:06:54;7.80;99.90
27707;DHT22;36332;51.384;0.040;2023-04-19T04:09:22;7.80;99.90
27707;DHT22;36332;51.384;0.040;2023-04-19T04:11:50;7.80;99.90
27707;DHT22;36332;51.384;0.040;2023-04-19T04:14:18;7.80;99.90
27707;DHT22;36332;51.384;0.040;2023-04-19T04:16:46;7.80;99.90
27707;DHT22;36332;51.384;0.040;2023-04-19T04:19:16;7.80;99.90
27707;DHT22;36332;51.384;0.040;2023-04-19T04:21:44;7.80;99.90
27707;DHT22;36332;51.384;0.040;2023-04-19T04:24:13;7.80;99.90
27707;DHT22;36332;51.384;0.040;2023-04-19T04:27:03;7.80;99.90
27707;DHT22;36332;51.384;0.040;2023-04-19T04:29:33;7.80;99.90
27707;DHT22;36332;51.384;0.040;2023-04-19T04:32:08;7.70;99.90
27707;DHT22;36332;51.384;0.040;2023-04-19T04:34:40;7.70;99.90
27707;DHT22;36332;51.384;0.040;2023-04-19T04:37:13;7.70;99.90
27707;DHT22;36332;51.384;0.040;2023-04-19T04:39:41;7.70;99.90
27707;DHT22;36332;51.384;0.040;2023-04-19T04:42:10;7.70;99.90
27707;DHT22;36332;51.384;0.040;2023-04-19T04:44:39;7.70;99.90
27707;DHT22;36332;51.384;0.040;2023-04-19T04:49:43;7.70;99.90
27707;DHT22;36332;51.384;0.040;2023-04-19T04:52:11;7.70;99.90
27707;DHT22;36332;51.384;0.040;2023-04-19T04:54:49;7.70;99.90
27707;DHT22;36332;51.384;0.040;2023-04-19T04:57:24;7.70;99.90
27707;DHT22;36332;51.384;0.040;2023-04-19T04:59:52;4.70;99.90
27707;DHT22;36332;51.384;0.040;2023-04-19T05:02:21;7.70;99.90
27707;DHT22;36332;51.384;0.040;2023-04-19T05:04:51;7.70;99.90
27707;DHT22;36332;51.384;0.040;2023-04-19T05:07:19;7.70;99.90
27707;DHT22;36332;51.384;0.040;2023-04-19T05:09:46;7.70;99.90
27707;DHT22;36332;51.384;0.040;2023-04-19T05:12:19;7.70;99.90
27707;DHT22;36332;51.384;0.040;2023-04-19T05:14:48;7.70;99.90
27707;DHT22;36332;51.384;0.040;2023-04-19T05:17:15;7.70;99.90
27707;DHT22;36332;51.384;0.040;2023-04-19T05:19:44;7.70;99.90
27707;DHT22;36332;51.384;0.040;2023-04-19T05:22:12;7.70;99.90
27707;DHT22;36332;51.384;0.040;2023-04-19T05:24:40;7.80;99.90
27707;DHT22;36332;51.384;0.040;2023-04-19T05:27:09;7.80;99.90
27707;DHT22;36332;51.384;0.040;2023-04-19T05:29:37;7.80;99.90
27707;DHT22;36332;51.384;0.040;2023-04-19T05:32:06;7.90;99.90
27707;DHT22;36332;51.384;0.040;2023-04-19T05:34:42;7.90;99.90
27707;DHT22;36332;51.384;0.040;2023-04-19T05:37:13;8.00;99.90
27707;DHT22;36332;51.384;0.040;2023-04-19T05:39:41;8.00;99.90
27707;DHT22;36332;51.384;0.040;2023-04-19T05:42:11;8.00;99.90
27707;DHT22;36332;51.384;0.040;2023-04-19T05:44:38;8.10;99.90
27707;DHT22;36332;51.384;0.040;2023-04-19T05:47:06;8.10;99.90
27707;DHT22;36332;51.384;0.040;2023-04-19T05:50:04;8.20;99.90
27707;DHT22;36332;51.384;0.040;2023-04-19T05:52:36;8.20;99.90
27707;DHT22;36332;51.384;0.040;2023-04-19T05:55:04;8.30;99.90
27707;DHT22;36332;51.384;0.040;2023-04-19T05:57:34;8.40;99.90
27707;DHT22;36332;51.384;0.040;2023-04-19T06:00:02;8.30;99.90
27707;DHT22;36332;51.384;0.040;2023-04-19T06:02:40;8.50;99.90
27707;DHT22;36332;51.384;0.040;2023-04-19T06:05:11;8.50;99.90
27707;DHT22;36332;51.384;0.040;2023-04-19T06:07:39;8.50;99.90
27707;DHT22;36332;51.384;0.040;2023-04-19T06:10:21;8.60;99.90
27707;DHT22;36332;51.384;0.040;2023-04-19T06:12:49;8.60;99.90
27707;DHT22;36332;51.384;0.040;2023-04-19T06:15:16;8.60;99.90
27707;DHT22;36332;51.384;0.040;2023-04-19T06:17:45;8.70;99.90
27707;DHT22;36332;51.384;0.040;2023-04-19T06:20:12;8.70;99.90
27707;DHT22;36332;51.384;0.040;2023-04-19T06:22:43;8.80;99.90
27707;DHT22;36332;51.384;0.040;2023-04-19T06:25:11;8.90;99.90
27707;DHT22;36332;51.384;0.040;2023-04-19T06:27:38;12.10;99.90
27707;DHT22;36332;51.384;0.040;2023-04-19T06:30:06;9.00;99.90
27707;DHT22;36332;51.384;0.040;2023-04-19T06:32:34;9.20;99.90
27707;DHT22;36332;51.384;0.040;2023-04-19T06:35:02;9.20;99.90
27707;DHT22;36332;51.384;0.040;2023-04-19T06:37:32;9.30;99.90
27707;DHT22;36332;51.384;0.040;2023-04-19T06:40:00;9.40;99.90
27707;DHT22;36332;51.384;0.040;2023-04-19T06:42:28;9.40;99.90
27707;DHT22;36332;51.384;0.040;2023-04-19T06:44:55;9.50;99.90
27707;DHT22;36332;51.384;0.040;2023-04-19T06:47:23;9.60;99.90
27707;DHT22;36332;51.384;0.040;2023-04-19T06:49:50;9.70;99.90
27707;DHT22;36332;51.384;0.040;2023-04-19T06:52:18;9.80;99.90
27707;DHT22;36332;51.384;0.040;2023-04-19T06:54:49;9.80;99.90
27707;DHT22;36332;51.384;0.040;2023-04-19T06:57:17;9.90;99.90
27707;DHT22;36332;51.384;0.040;2023-04-19T06:59:45;9.90;99.90
27707;DHT22;36332;51.384;0.040;2023-04-19T07:02:12;10.00;99.90
27707;DHT22;36332;51.384;0.040;2023-04-19T07:04:40;10.10;99.90
27707;DHT22;36332;51.384;0.040;2023-04-19T07:07:07;10.10;99.90
27707;DHT22;36332;51.384;0.040;2023-04-19T07:09:35;10.20;99.90
27707;DHT22;36332;51.384;0.040;2023-04-19T07:12:02;10.30;99.90
27707;DHT22;36332;51.384;0.040;2023-04-19T07:14:30;10.40;99.90
27707;DHT22;36332;51.384;0.040;2023-04-19T07:16:57;10.50;99.90
27707;DHT22;36332;51.384;0.040;2023-04-19T07:19:25;10.50;99.90
27707;DHT22;36332;51.384;0.040;2023-04-19T07:21:54;10.60;99.90
27707;DHT22;36332;51.384;0.040;2023-04-19T07:24:21;10.70;99.90
27707;DHT22;36332;51.384;0.040;2023-04-19T07:26:49;10.80;99.90
27707;DHT22;36332;51.384;0.040;2023-04-19T07:29:17;10.90;99.90
27707;DHT22;36332;51.384;0.040;2023-04-19T07:31:45;11.00;99.90
27707;DHT22;36332;51.384;0.040;2023-04-19T07:34:12;11.10;99.90
27707;DHT22;36332;51.384;0.040;2023-04-19T07:36:40;11.20;99.90
27707;DHT22;36332;51.384;0.040;2023-04-19T07:39:08;11.20;99.90
27707;DHT22;36332;51.384;0.040;2023-04-19T07:41:35;11.40;99.90
27707;DHT22;36332;51.384;0.040;2023-04-19T07:44:03;11.40;99.90
27707;DHT22;36332;51.384;0.040;2023-04-19T07:46:31;11.50;99.90
27707;DHT22;36332;51.384;0.040;2023-04-19T07:48:59;11.60;99.90
27707;DHT22;36332;51.384;0.040;2023-04-19T07:51:26;11.70;99.90
27707;DHT22;36332;51.384;0.040;2023-04-19T07:53:54;11.80;99.90
27707;DHT22;36332;51.384;0.040;2023-04-19T07:56:22;11.90;99.90
27707;DHT22;36332;51.384;0.040;2023-04-19T07:58:49;11.70;99.90
27707;DHT22;36332;51.384;0.040;2023-04-19T08:01:33;12.30;99.90
27707;DHT22;36332;51.384;0.040;2023-04-19T08:04:01;12.50;99.90
27707;DHT22;36332;51.384;0.040;2023-04-19T08:06:29;12.70;99.90
27707;DHT22;36332;51.384;0.040;2023-04-19T08:08:57;12.90;99.90
27707;DHT22;36332;51.384;0.040;2023-04-19T08:11:24;13.10;99.90
27707;DHT22;36332;51.384;0.040;2023-04-19T08:13:52;13.20;99.90
27707;DHT22;36332;51.384;0.040;2023-04-19T08:16:37;13.30;99.90
27707;DHT22;36332;51.384;0.040;2023-04-19T08:19:08;13.30;99.90
27707;DHT22;36332;51.384;0.040;2023-04-19T08:21:35;13.40;99.90
27707;DHT22;36332;51.384;0.040;2023-04-19T08:24:08;13.50;99.90
27707;DHT22;36332;51.384;0.040;2023-04-19T08:26:35;13.40;99.90
27707;DHT22;36332;51.384;0.040;2023-04-19T08:29:03;13.40;99.90
27707;DHT22;36332;51.384;0.040;2023-04-19T08:31:30;13.40;99.90
27707;DHT22;36332;51.384;0.040;2023-04-19T08:33:58;13.40;99.90
27707;DHT22;36332;51.384;0.040;2023-04-19T08:36:26;13.30;99.90
27707;DHT22;36332;51.384;0.040;2023-04-19T08:39:09;13.40;99.90
27707;DHT22;36332;51.384;0.040;2023-04-19T08:42:05;13.30;99.90
27707;DHT22;36332;51.384;0.040;2023-04-19T08:44:52;13.30;99.90
27707;DHT22;36332;51.384;0.040;2023-04-19T08:47:44;13.20;99.90
27707;DHT22;36332;51.384;0.040;2023-04-19T08:50:27;13.20;99.90
27707;DHT22;36332;51.384;0.040;2023-04-19T08:53:02;13.20;99.90
27707;DHT22;36332;51.384;0.040;2023-04-19T08:55:33;13.10;99.90
27707;DHT22;36332;51.384;0.040;2023-04-19T08:58:02;13.10;99.90
27707;DHT22;36332;51.384;0.040;2023-04-19T09:00:38;13.10;99.90
27707;DHT22;36332;51.384;0.040;2023-04-19T09:03:07;13.10;99.90
27707;DHT22;36332;51.384;0.040;2023-04-19T09:05:35;13.10;99.90
27707;DHT22;36332;51.384;0.040;2023-04-19T09:08:29;13.20;99.90
27707;DHT22;36332;51.384;0.040;2023-04-19T09:10:59;13.20;99.90
27707;DHT22;36332;51.384;0.040;2023-04-19T09:13:28;13.20;99.90
27707;DHT22;36332;51.384;0.040;2023-04-19T09:15:56;13.20;99.90
27707;DHT22;36332;51.384;0.040;2023-04-19T09:18:24;13.20;99.90
27707;DHT22;36332;51.384;0.040;2023-04-19T09:20:54;13.20;99.90
27707;DHT22;36332;51.384;0.040;2023-04-19T09:23:25;13.20;99.90
27707;DHT22;36332;51.384;0.040;2023-04-19T09:25:58;13.20;99.90
27707;DHT22;36332;51.384;0.040;2023-04-19T09:28:58;13.30;99.90
27707;DHT22;36332;51.384;0.040;2023-04-19T09:31:27;13.30;99.90
27707;DHT22;36332;51.384;0.040;2023-04-19T09:34:16;13.40;99.90
27707;DHT22;36332;51.384;0.040;2023-04-19T09:36:44;13.40;99.90
27707;DHT22;36332;51.384;0.040;2023-04-19T09:39:13;13.50;99.90
27707;DHT22;36332;51.384;0.040;2023-04-19T09:41:52;13.50;99.90
27707;DHT22;36332;51.384;0.040;2023-04-19T09:44:20;13.60;99.90
27707;DHT22;36332;51.384;0.040;2023-04-19T09:47:22;13.60;99.90
27707;DHT22;36332;51.384;0.040;2023-04-19T09:50:12;13.70;99.90
27707;DHT22;36332;51.384;0.040;2023-04-19T09:52:43;13.80;99.90
27707;DHT22;36332;51.384;0.040;2023-04-19T09:55:12;13.80;99.90
27707;DHT22;36332;51.384;0.040;2023-04-19T09:57:53;13.90;99.90
27707;DHT22;36332;51.384;0.040;2023-04-19T10:00:22;14.10;99.90
27707;DHT22;36332;51.384;0.040;2023-04-19T10:02:51;14.30;99.90
27707;DHT22;36332;51.384;0.040;2023-04-19T10:05:24;14.30;99.90
27707;DHT22;36332;51.384;0.040;2023-04-19T10:07:53;14.40;99.90
27707;DHT22;36332;51.384;0.040;2023-04-19T10:10:26;14.50;99.90
27707;DHT22;36332;51.384;0.040;2023-04-19T10:13:03;14.50;99.90
27707;DHT22;36332;51.384;0.040;2023-04-19T10:15:46;14.70;99.90
27707;DHT22;36332;51.384;0.040;2023-04-19T10:18:22;14.60;99.90
27707;DHT22;36332;51.384;0.040;2023-04-19T10:23:17;14.70;99.90
27707;DHT22;36332;51.384;0.040;2023-04-19T10:25:46;14.80;99.90
27707;DHT22;36332;51.384;0.040;2023-04-19T10:28:17;14.90;99.90
27707;DHT22;36332;51.384;0.040;2023-04-19T10:30:58;15.10;99.90
27707;DHT22;36332;51.384;0.040;2023-04-19T10:33:39;15.20;99.90
27707;DHT22;36332;51.384;0.040;2023-04-19T10:36:13;15.40;99.90
27707;DHT22;36332;51.384;0.040;2023-04-19T10:41:16;15.60;99.90
27707;DHT22;36332;51.384;0.040;2023-04-19T10:48:57;15.80;99.90
27707;DHT22;36332;51.384;0.040;2023-04-19T10:51:27;15.80;99.90
27707;DHT22;36332;51.384;0.040;2023-04-19T10:54:02;15.70;99.90
27707;DHT22;36332;51.384;0.040;2023-04-19T11:04:13;16.00;99.90
27707;DHT22;36332;51.384;0.040;2023-04-19T11:11:57;16.20;99.90
27707;DHT22;36332;51.384;0.040;2023-04-19T11:14:30;16.20;99.90
27707;DHT22;36332;51.384;0.040;2023-04-19T11:16:59;16.40;99.90
27707;DHT22;36332;51.384;0.040;2023-04-19T11:21:57;16.80;99.90
27707;DHT22;36332;51.384;0.040;2023-04-19T11:24:26;17.00;99.90
27707;DHT22;36332;51.384;0.040;2023-04-19T11:26:55;17.00;99.90
27707;DHT22;36332;51.384;0.040;2023-04-19T11:29:24;17.40;99.90
27707;DHT22;36332;51.384;0.040;2023-04-19T11:31:51;17.40;99.90
27707;DHT22;36332;51.384;0.040;2023-04-19T11:34:22;17.40;99.90
27707;DHT22;36332;51.384;0.040;2023-04-19T11:36:51;17.60;99.90
27707;DHT22;36332;51.384;0.040;2023-04-19T11:39:18;17.60;99.90
27707;DHT22;36332;51.384;0.040;2023-04-19T11:41:47;17.70;99.90
27707;DHT22;36332;51.384;0.040;2023-04-19T11:44:16;17.70;99.90
27707;DHT22;36332;51.384;0.040;2023-04-19T11:46:59;17.90;99.90
27707;DHT22;36332;51.384;0.040;2023-04-19T11:49:29;18.00;99.90
27707;DHT22;36332;51.384;0.040;2023-04-19T11:51:59;18.00;99.90
27707;DHT22;36332;51.384;0.040;2023-04-19T11:54:29;18.00;99.90
27707;DHT22;36332;51.384;0.040;2023-04-19T11:57:14;17.90;99.90
27707;DHT22;36332;51.384;0.040;2023-04-19T12:00:05;18.00;99.90
27707;DHT22;36332;51.384;0.040;2023-04-19T12:02:42;18.00;99.90
27707;DHT22;36332;51.384;0.040;2023-04-19T12:05:14;18.30;99.90
27707;DHT22;36332;51.384;0.040;2023-04-19T12:08:02;18.60;99.90
27707;DHT22;36332;51.384;0.040;2023-04-19T12:10:31;19.00;99.90
27707;DHT22;36332;51.384;0.040;2023-04-19T12:12:59;19.40;99.90
27707;DHT22;36332;51.384;0.040;2023-04-19T12:15:46;20.10;99.90
27707;DHT22;36332;51.384;0.040;2023-04-19T12:18:16;20.00;99.90
27707;DHT22;36332;51.384;0.040;2023-04-19T12:20:45;20.30;99.90
27707;DHT22;36332;51.384;0.040;2023-04-19T12:23:13;20.50;99.90
27707;DHT22;36332;51.384;0.040;2023-04-19T12:25:43;20.60;99.90
27707;DHT22;36332;51.384;0.040;2023-04-19T12:28:11;20.60;99.90
27707;DHT22;36332;51.384;0.040;2023-04-19T12:30:40;20.50;99.90
27707;DHT22;36332;51.384;0.040;2023-04-19T12:33:08;20.50;99.90
27707;DHT22;36332;51.384;0.040;2023-04-19T12:35:36;20.40;99.90
27707;DHT22;36332;51.384;0.040;2023-04-19T12:38:05;20.40;99.90
27707;DHT22;36332;51.384;0.040;2023-04-19T12:40:33;20.50;99.90
27707;DHT22;36332;51.384;0.040;2023-04-19T12:43:00;20.70;99.90
27707;DHT22;36332;51.384;0.040;2023-04-19T12:45:28;20.80;99.90
27707;DHT22;36332;51.384;0.040;2023-04-19T12:47:56;20.90;99.90
27707;DHT22;36332;51.384;0.040;2023-04-19T12:50:23;21.00;99.90
27707;DHT22;36332;51.384;0.040;2023-04-19T12:52:51;21.10;99.90
27707;DHT22;36332;51.384;0.040;2023-04-19T12:55:20;21.10;99.90
27707;DHT22;36332;51.384;0.040;2023-04-19T12:57:48;21.10;99.90
27707;DHT22;36332;51.384;0.040;2023-04-19T13:00:16;21.40;99.90
27707;DHT22;36332;51.384;0.040;2023-04-19T13:02:44;21.50;99.90
27707;DHT22;36332;51.384;0.040;2023-04-19T13:05:14;21.90;99.90
27707;DHT22;36332;51.384;0.040;2023-04-19T13:07:42;22.40;99.90
27707;DHT22;36332;51.384;0.040;2023-04-19T13:10:10;22.80;99.90
27707;DHT22;36332;51.384;0.040;2023-04-19T13:12:38;23.10;99.90
27707;DHT22;36332;51.384;0.040;2023-04-19T13:15:07;23.30;99.90
27707;DHT22;36332;51.384;0.040;2023-04-19T13:17:35;23.50;99.90
27707;DHT22;36332;51.384;0.040;2023-04-19T13:20:04;23.50;99.90
27707;DHT22;36332;51.384;0.040;2023-04-19T13:22:32;23.60;99.90
27707;DHT22;36332;51.384;0.040;2023-04-19T13:25:00;23.60;99.90
27707;DHT22;36332;51.384;0.040;2023-04-19T13:27:29;23.60;99.90
27707;DHT22;36332;51.384;0.040;2023-04-19T13:29:57;23.80;99.90
27707;DHT22;36332;51.384;0.040;2023-04-19T13:32:28;23.90;99.90
27707;DHT22;36332;51.384;0.040;2023-04-19T13:34:56;24.20;99.90
27707;DHT22;36332;51.384;0.040;2023-04-19T13:37:23;24.30;99.90
27707;DHT22;36332;51.384;0.040;2023-04-19T13:39:51;24.50;99.90
27707;DHT22;36332;51.384;0.040;2023-04-19T13:42:28;24.60;99.90
27707;DHT22;36332;51.384;0.040;2023-04-19T13:44:56;24.70;99.90
27707;DHT22;36332;51.384;0.040;2023-04-19T13:47:23;24.80;99.90
27707;DHT22;36332;51.384;0.040;2023-04-19T13:49:51;24.20;98.90
27707;DHT22;36332;51.384;0.040;2023-04-19T13:52:18;24.60;99.90
27707;DHT22;36332;51.384;0.040;2023-04-19T13:54:46;24.60;99.90
27707;DHT22;36332;51.384;0.040;2023-04-19T13:57:13;24.60;99.80
27707;DHT22;36332;51.384;0.040;2023-04-19T13:59:41;24.70;99.40
27707;DHT22;36332;51.384;0.040;2023-04-19T14:02:09;24.80;98.00
27707;DHT22;36332;51.384;0.040;2023-04-19T14:04:37;24.70;97.00
27707;DHT22;36332;51.384;0.040;2023-04-19T14:07:05;24.60;95.80
27707;DHT22;36332;51.384;0.040;2023-04-19T14:09:33;24.70;96.90
27707;DHT22;36332;51.384;0.040;2023-04-19T14:12:01;24.90;96.10
27707;DHT22;36332;51.384;0.040;2023-04-19T14:14:30;25.10;94.80
27707;DHT22;36332;51.384;0.040;2023-04-19T14:16:58;25.20;94.00
27707;DHT22;36332;51.384;0.040;2023-04-19T14:19:26;28.80;91.60
27707;DHT22;36332;51.384;0.040;2023-04-19T14:21:54;25.40;90.00
27707;DHT22;36332;51.384;0.040;2023-04-19T14:24:21;25.40;91.70
27707;DHT22;36332;51.384;0.040;2023-04-19T14:26:49;25.40;86.40
27707;DHT22;36332;51.384;0.040;2023-04-19T14:29:35;25.30;90.30
27707;DHT22;36332;51.384;0.040;2023-04-19T14:32:03;25.20;89.10
27707;DHT22;36332;51.384;0.040;2023-04-19T14:34:51;25.10;88.80
27707;DHT22;36332;51.384;0.040;2023-04-19T14:37:20;25.00;87.90
27707;DHT22;36332;51.384;0.040;2023-04-19T14:39:48;24.80;86.80
27707;DHT22;36332;51.384;0.040;2023-04-19T14:42:15;24.70;87.00
27707;DHT22;36332;51.384;0.040;2023-04-19T14:44:43;24.80;87.50
27707;DHT22;36332;51.384;0.040;2023-04-19T14:47:12;25.10;82.30
27707;DHT22;36332;51.384;0.040;2023-04-19T14:49:40;25.10;81.10
27707;DHT22;36332;51.384;0.040;2023-04-19T14:52:08;25.00;84.20
27707;DHT22;36332;51.384;0.040;2023-04-19T14:54:35;25.00;84.30
27707;DHT22;36332;51.384;0.040;2023-04-19T14:57:03;24.90;83.30
27707;DHT22;36332;51.384;0.040;2023-04-19T14:59:30;25.10;80.40
27707;DHT22;36332;51.384;0.040;2023-04-19T15:01:58;25.00;82.40
27707;DHT22;36332;51.384;0.040;2023-04-19T15:04:25;25.20;81.10
27707;DHT22;36332;51.384;0.040;2023-04-19T15:06:53;25.30;81.70
27707;DHT22;36332;51.384;0.040;2023-04-19T15:09:21;25.50;81.00
27707;DHT22;36332;51.384;0.040;2023-04-19T15:11:49;25.70;75.10
27707;DHT22;36332;51.384;0.040;2023-04-19T15:14:16;25.70;77.70
27707;DHT22;36332;51.384;0.040;2023-04-19T15:16:44;25.80;75.80
27707;DHT22;36332;51.384;0.040;2023-04-19T15:19:12;25.70;75.40
27707;DHT22;36332;51.384;0.040;2023-04-19T15:21:40;25.60;73.30
27707;DHT22;36332;51.384;0.040;2023-04-19T15:24:07;25.40;74.80
27707;DHT22;36332;51.384;0.040;2023-04-19T15:26:35;25.30;72.80
27707;DHT22;36332;51.384;0.040;2023-04-19T15:31:30;24.90;70.30
27707;DHT22;36332;51.384;0.040;2023-04-19T15:34:02;24.90;73.00
27707;DHT22;36332;51.384;0.040;2023-04-19T15:36:29;24.90;72.20
27707;DHT22;36332;51.384;0.040;2023-04-19T15:38:58;24.90;73.10
27707;DHT22;36332;51.384;0.040;2023-04-19T15:41:26;26.30;72.40
27707;DHT22;36332;51.384;0.040;2023-04-19T15:43:53;25.00;72.40
27707;DHT22;36332;51.384;0.040;2023-04-19T15:46:20;25.10;71.50
27707;DHT22;36332;51.384;0.040;2023-04-19T15:48:48;25.10;72.10
27707;DHT22;36332;51.384;0.040;2023-04-19T15:51:16;25.30;71.70
27707;DHT22;36332;51.384;0.040;2023-04-19T15:53:44;25.40;67.80
27707;DHT22;36332;51.384;0.040;2023-04-19T15:56:11;25.50;66.60
27707;DHT22;36332;51.384;0.040;2023-04-19T15:58:40;25.60;68.40
27707;DHT22;36332;51.384;0.040;2023-04-19T16:01:16;25.70;68.50
27707;DHT22;36332;51.384;0.040;2023-04-19T16:03:45;25.60;69.30
27707;DHT22;36332;51.384;0.040;2023-04-19T16:06:13;25.80;68.90
27707;DHT22;36332;51.384;0.040;2023-04-19T16:08:41;25.90;67.70
27707;DHT22;36332;51.384;0.040;2023-04-19T16:11:09;25.80;65.20
27707;DHT22;36332;51.384;0.040;2023-04-19T16:13:37;25.30;64.50
27707;DHT22;36332;51.384;0.040;2023-04-19T16:16:05;25.20;64.10
27707;DHT22;36332;51.384;0.040;2023-04-19T16:18:33;25.10;67.00
27707;DHT22;36332;51.384;0.040;2023-04-19T16:21:01;25.10;67.40
27707;DHT22;36332;51.384;0.040;2023-04-19T16:23:29;25.00;66.90
27707;DHT22;36332;51.384;0.040;2023-04-19T16:25:57;25.10;66.50
27707;DHT22;36332;51.384;0.040;2023-04-19T16:28:25;25.10;66.30
27707;DHT22;36332;51.384;0.040;2023-04-19T16:30:52;25.20;65.30
27707;DHT22;36332;51.384;0.040;2023-04-19T16:33:20;25.20;66.00
27707;DHT22;36332;51.384;0.040;2023-04-19T16:35:48;26.10;64.10